Terminal Aerodrome Forecast
Issued by NWS

Home | Current Version | Previous Version | Text Only | Print | Product List | Glossary On
Versions: 1 2 3 4 5 6 7 8 9 10 11 12 13 14 15 16 17 18 19
015
FTAK31 PAJN 302320
TAFAPG
TAF
PAPG 302320Z 3100/3124 VRB05KT P6SM FEW010 BKN030 OVC060
     FM310800 VRB02KT 4SM BR FEW003 BKN025
     FM311100 00000KT 1SM BR OVC003
     FM311700 05004KT P6SM BCFG SCT005 BKN015 OVC035
     FM312200 06006KT P6SM SCT020 OVC035
      AMD LTD TO CLD VIS AND WIND 3106/3115=

USA.gov is the U.S. government's official web portal to all federal, state and local government web resources and services.